createdAt,value
2017-03-19T00:00:35.882Z,0
2017-03-19T00:01:36.020Z,0
2017-03-19T00:02:35.904Z,0
2017-03-19T00:03:35.924Z,0
2017-03-19T00:04:36.060Z,0
2017-03-19T00:05:36.076Z,0
2017-03-19T00:06:35.976Z,0
2017-03-19T00:07:35.671Z,0
2017-03-19T00:08:36.113Z,0
2017-03-19T00:09:36.004Z,0
2017-03-19T00:10:36.151Z,0
2017-03-19T00:11:36.033Z,0
2017-03-19T00:12:35.743Z,0
2017-03-19T00:13:36.069Z,0
2017-03-19T00:14:36.085Z,0
2017-03-19T00:15:35.908Z,0
2017-03-19T00:16:36.224Z,0
2017-03-19T00:17:36.364Z,0
2017-03-19T00:18:36.238Z,0
2017-03-19T00:19:36.378Z,0
2017-03-19T00:20:35.978Z,0
2017-03-19T00:21:36.389Z,0
2017-03-19T00:22:36.129Z,0
2017-03-19T00:23:36.411Z,0
2017-03-19T00:24:36.410Z,0
2017-03-19T00:25:36.049Z,0
2017-03-19T00:26:36.332Z,0
2017-03-19T00:27:35.741Z,0
2017-03-19T00:28:36.377Z,0
2017-03-19T00:29:36.386Z,0
2017-03-19T00:30:36.390Z,0
2017-03-19T00:31:36.399Z,0
2017-03-19T00:32:36.431Z,0
2017-03-19T00:33:36.456Z,0
2017-03-19T00:34:36.438Z,0
2017-03-19T00:35:36.247Z,0
2017-03-19T00:36:36.256Z,0
2017-03-19T00:37:36.461Z,0
2017-03-19T00:38:36.433Z,0
2017-03-19T00:39:36.442Z,0
2017-03-19T00:40:36.451Z,0
2017-03-19T00:41:36.467Z,0
2017-03-19T00:42:36.479Z,0
2017-03-19T00:43:36.189Z,0
2017-03-19T00:44:36.510Z,0
2017-03-19T00:45:36.555Z,0
2017-03-19T00:46:36.363Z,0
2017-03-19T00:47:36.558Z,0
2017-03-19T00:48:36.573Z,0
2017-03-19T00:49:36.579Z,0
2017-03-19T00:50:36.614Z,0
2017-03-19T00:51:36.606Z,0
2017-03-19T00:52:36.647Z,0
2017-03-19T00:53:36.639Z,0
2017-03-19T00:54:36.651Z,0
2017-03-19T00:55:36.665Z,0
2017-03-19T00:56:36.680Z,0
2017-03-19T00:57:36.698Z,0
2017-03-19T00:58:36.723Z,0
2017-03-19T00:59:36.728Z,0
2017-03-19T01:00:36.742Z,0
2017-03-19T01:01:36.753Z,0
2017-03-19T01:02:36.769Z,0
2017-03-19T01:03:36.471Z,0
2017-03-19T01:04:36.789Z,0
2017-03-19T01:05:36.805Z,0
2017-03-19T01:06:36.824Z,0
2017-03-19T01:07:36.846Z,0
2017-03-19T01:08:36.871Z,0
2017-03-19T01:09:36.868Z,0
2017-03-19T01:10:36.886Z,0
2017-03-19T01:11:36.900Z,0
2017-03-19T01:12:36.928Z,0
2017-03-19T01:13:36.932Z,0
2017-03-19T01:14:36.940Z,0
2017-03-19T01:15:36.632Z,0
2017-03-19T01:16:36.676Z,0
2017-03-19T01:17:36.668Z,0
2017-03-19T01:18:36.991Z,0
2017-03-19T01:19:36.999Z,0
2017-03-19T01:20:37.024Z,0
2017-03-19T01:21:37.036Z,0
2017-03-19T01:22:37.047Z,0
2017-03-19T01:23:37.067Z,0
2017-03-19T01:24:37.079Z,0
2017-03-19T01:25:37.090Z,0
2017-03-19T01:26:36.791Z,0
2017-03-19T01:27:37.120Z,0
2017-03-19T01:28:37.137Z,0
2017-03-19T01:29:37.146Z,0
2017-03-19T01:30:37.158Z,0
2017-03-19T01:31:37.179Z,0
2017-03-19T01:32:37.224Z,0
2017-03-19T01:33:37.219Z,0
2017-03-19T01:34:37.233Z,0
2017-03-19T01:35:37.236Z,0
2017-03-19T01:36:37.242Z,0
2017-03-19T01:37:36.948Z,0
2017-03-19T01:38:36.997Z,0
2017-03-19T01:39:36.980Z,0
2017-03-19T01:40:37.338Z,0
2017-03-19T01:41:37.321Z,0
2017-03-19T01:42:37.332Z,0
2017-03-19T01:43:37.040Z,0
2017-03-19T01:44:37.370Z,0
2017-03-19T01:45:37.410Z,0
2017-03-19T01:46:37.084Z,0
2017-03-19T01:47:37.404Z,0
2017-03-19T01:48:37.418Z,0
2017-03-19T01:49:37.440Z,0
2017-03-19T01:50:37.460Z,0
2017-03-19T01:51:37.485Z,0
2017-03-19T01:52:37.472Z,0
2017-03-19T01:53:37.489Z,0
2017-03-19T01:54:37.503Z,0
2017-03-19T01:55:37.520Z,0
2017-03-19T01:56:37.529Z,0
2017-03-19T01:57:37.229Z,0
2017-03-19T01:58:37.556Z,0
2017-03-19T01:59:37.577Z,0
2017-03-19T02:00:37.632Z,0
2017-03-19T02:01:37.604Z,0
2017-03-19T02:02:37.615Z,0
2017-03-19T02:03:37.312Z,0
2017-03-19T02:04:37.639Z,0
2017-03-19T02:05:37.659Z,0
2017-03-19T02:06:37.665Z,0
2017-03-19T02:07:37.696Z,0
2017-03-19T02:08:37.695Z,0
2017-03-19T02:09:37.707Z,0
2017-03-19T02:10:37.722Z,0
2017-03-19T02:11:37.739Z,0
2017-03-19T02:12:37.756Z,0
2017-03-19T02:13:37.783Z,0
2017-03-19T02:14:37.777Z,0
2017-03-19T02:15:37.798Z,0
2017-03-19T02:16:37.822Z,0
2017-03-19T02:17:37.817Z,0
2017-03-19T02:18:37.842Z,0
2017-03-19T02:19:37.858Z,0
2017-03-19T02:20:37.857Z,0
2017-03-19T02:21:37.884Z,0
2017-03-19T02:22:38.011Z,0
2017-03-19T02:23:38.009Z,0
2017-03-19T02:24:38.015Z,0
2017-03-19T02:25:38.026Z,0
2017-03-19T02:26:38.061Z,0
2017-03-19T02:27:38.072Z,0
2017-03-19T02:28:38.069Z,0
2017-03-19T02:29:38.073Z,0
2017-03-19T02:30:38.081Z,0
2017-03-19T02:31:38.096Z,0
2017-03-19T02:32:38.103Z,0
2017-03-19T02:33:38.103Z,0
2017-03-19T02:34:38.110Z,0
2017-03-19T02:35:38.178Z,0
2017-03-19T02:36:38.188Z,0
2017-03-19T02:37:38.194Z,0
2017-03-19T02:38:38.200Z,0
2017-03-19T02:39:37.823Z,0
2017-03-19T02:40:37.884Z,0
2017-03-19T02:41:38.223Z,0
2017-03-19T02:42:38.176Z,0
2017-03-19T02:43:38.320Z,0
2017-03-19T02:44:38.008Z,0
2017-03-19T02:45:38.343Z,0
2017-03-19T02:46:38.327Z,0
2017-03-19T02:47:38.341Z,0
2017-03-19T02:48:38.454Z,0
2017-03-19T02:49:38.464Z,0
2017-03-19T02:50:38.017Z,0
2017-03-19T02:51:38.481Z,0
2017-03-19T02:52:38.483Z,0
2017-03-19T02:53:38.489Z,0
2017-03-19T02:54:38.499Z,0
2017-03-19T02:55:38.509Z,0
2017-03-19T02:56:38.516Z,0
2017-03-19T02:57:38.535Z,0
2017-03-19T02:58:38.529Z,0
2017-03-19T02:59:38.243Z,0
2017-03-19T03:00:38.581Z,0
2017-03-19T03:01:38.590Z,0
2017-03-19T03:02:38.589Z,0
2017-03-19T03:03:38.603Z,0
2017-03-19T03:04:38.608Z,0
2017-03-19T03:05:38.656Z,0
2017-03-19T03:06:38.291Z,0
2017-03-19T03:07:38.666Z,0
2017-03-19T03:08:38.616Z,0
2017-03-19T03:09:38.312Z,0
2017-03-19T03:10:38.643Z,0
2017-03-19T03:11:38.338Z,0
2017-03-19T03:12:38.659Z,0
2017-03-19T03:13:38.464Z,0
2017-03-19T03:14:38.678Z,0
2017-03-19T03:15:38.373Z,0
2017-03-19T03:16:38.681Z,0
2017-03-19T03:17:38.698Z,0
2017-03-19T03:18:38.713Z,0
2017-03-19T03:19:38.709Z,0
2017-03-19T03:20:38.403Z,0
2017-03-19T03:21:38.716Z,0
2017-03-19T03:22:38.746Z,0
2017-03-19T03:23:38.742Z,0
2017-03-19T03:24:38.751Z,0
2017-03-19T03:25:38.770Z,0
2017-03-19T03:26:38.820Z,0
2017-03-19T03:27:38.833Z,0
2017-03-19T03:28:38.820Z,0
2017-03-19T03:29:38.824Z,0
2017-03-19T03:30:38.846Z,0
2017-03-19T03:31:38.543Z,0
2017-03-19T03:32:38.871Z,0
2017-03-19T03:33:38.661Z,0
2017-03-19T03:34:38.895Z,0
2017-03-19T03:35:38.595Z,0
2017-03-19T03:36:38.920Z,0
2017-03-19T03:37:38.983Z,0
2017-03-19T03:38:38.958Z,0
2017-03-19T03:39:38.961Z,0
2017-03-19T03:40:38.979Z,0
2017-03-19T03:41:38.674Z,0
2017-03-19T03:42:39.012Z,0
2017-03-19T03:43:39.024Z,0
2017-03-19T03:44:39.036Z,0
2017-03-19T03:45:39.084Z,0
2017-03-19T03:46:39.066Z,0
2017-03-19T03:47:39.079Z,0
2017-03-19T03:48:39.090Z,0
2017-03-19T03:49:39.097Z,0
2017-03-19T03:50:39.127Z,0
2017-03-19T03:51:39.128Z,0
2017-03-19T03:52:39.152Z,0
2017-03-19T03:53:39.158Z,0
2017-03-19T03:54:39.181Z,0
2017-03-19T03:55:38.555Z,0
2017-03-19T03:56:38.885Z,0
2017-03-19T03:57:39.225Z,0
2017-03-19T03:58:39.228Z,0
2017-03-19T03:59:38.930Z,0
2017-03-19T04:00:39.268Z,0
2017-03-19T04:01:39.276Z,0
2017-03-19T04:02:39.284Z,0
2017-03-19T04:03:39.301Z,0
2017-03-19T04:04:39.310Z,0
2017-03-19T04:05:39.331Z,0
2017-03-19T04:06:39.027Z,0
2017-03-19T04:07:39.357Z,0
2017-03-19T04:08:39.369Z,0
2017-03-19T04:09:39.384Z,0
2017-03-19T04:10:39.422Z,0
2017-03-19T04:11:39.407Z,0
2017-03-19T04:12:39.454Z,0
2017-03-19T04:13:39.446Z,0
2017-03-19T04:14:39.444Z,0
2017-03-19T04:15:39.480Z,0
2017-03-19T04:16:39.476Z,0
2017-03-19T04:17:39.176Z,0
2017-03-19T04:18:39.196Z,0
2017-03-19T04:19:39.548Z,0
2017-03-19T04:20:39.218Z,0
2017-03-19T04:21:39.551Z,0
2017-03-19T04:22:39.566Z,0
2017-03-19T04:23:39.579Z,0
2017-03-19T04:24:39.588Z,0
2017-03-19T04:25:39.292Z,0
2017-03-19T04:26:39.627Z,0
2017-03-19T04:27:39.627Z,0
2017-03-19T04:28:39.697Z,0
2017-03-19T04:29:39.659Z,0
2017-03-19T04:30:39.672Z,0
2017-03-19T04:31:39.515Z,0
2017-03-19T04:32:39.397Z,0
2017-03-19T04:33:39.399Z,0
2017-03-19T04:34:39.729Z,0
2017-03-19T04:35:39.427Z,0
2017-03-19T04:36:39.447Z,0
2017-03-19T04:37:39.779Z,0
2017-03-19T04:38:39.794Z,0
2017-03-19T04:39:40.016Z,0
2017-03-19T04:40:39.811Z,0
2017-03-19T04:41:39.820Z,0
2017-03-19T04:42:39.968Z,0
2017-03-19T04:43:39.882Z,0
2017-03-19T04:44:39.868Z,0
2017-03-19T04:45:39.878Z,0
2017-03-19T04:46:39.888Z,0
2017-03-19T04:47:40.031Z,0
2017-03-19T04:48:39.921Z,0
2017-03-19T04:49:39.840Z,0
2017-03-19T04:50:40.036Z,0
2017-03-19T04:51:39.652Z,0
2017-03-19T04:52:39.996Z,0
2017-03-19T04:53:40.050Z,0
2017-03-19T04:54:40.003Z,4
2017-03-19T04:55:40.018Z,4
2017-03-19T04:56:40.038Z,0
2017-03-19T04:57:40.058Z,0
2017-03-19T04:58:40.069Z,4
2017-03-19T04:59:40.072Z,4
2017-03-19T05:00:40.075Z,0
2017-03-19T05:01:39.787Z,4
2017-03-19T05:02:39.805Z,4
2017-03-19T05:03:40.167Z,4
2017-03-19T05:04:39.518Z,4
2017-03-19T05:05:40.343Z,4
2017-03-19T05:06:40.172Z,4
2017-03-19T05:07:40.188Z,8
2017-03-19T05:08:39.993Z,12
2017-03-19T05:09:40.336Z,12
2017-03-19T05:10:40.483Z,12
2017-03-19T05:11:40.437Z,12
2017-03-19T05:12:40.443Z,16
2017-03-19T05:13:40.459Z,16
2017-03-19T05:14:40.387Z,20
2017-03-19T05:15:40.296Z,20
2017-03-19T05:16:40.307Z,24
2017-03-19T05:17:40.324Z,24
2017-03-19T05:18:40.027Z,28
2017-03-19T05:19:40.344Z,32
2017-03-19T05:20:40.363Z,32
2017-03-19T05:21:40.372Z,36
2017-03-19T05:22:40.397Z,40
2017-03-19T05:23:40.428Z,44
2017-03-19T05:24:40.420Z,52
2017-03-19T05:25:40.604Z,52
2017-03-19T05:26:40.594Z,60
2017-03-19T05:27:40.342Z,64
2017-03-19T05:28:40.613Z,64
2017-03-19T05:29:40.485Z,72
2017-03-19T05:30:40.531Z,80
2017-03-19T05:31:40.519Z,84
2017-03-19T05:32:40.537Z,92
2017-03-19T05:33:40.560Z,100
2017-03-19T05:34:40.556Z,108
2017-03-19T05:35:40.581Z,116
2017-03-19T05:36:40.459Z,120
2017-03-19T05:37:40.605Z,132
2017-03-19T05:38:40.614Z,136
2017-03-19T05:39:40.629Z,140
2017-03-19T05:40:40.647Z,140
2017-03-19T05:41:40.666Z,140
2017-03-19T05:42:40.670Z,144
2017-03-19T05:43:40.687Z,148
2017-03-19T05:44:40.695Z,152
2017-03-19T05:45:40.714Z,156
2017-03-19T05:46:40.573Z,156
2017-03-19T05:47:40.737Z,152
2017-03-19T05:48:40.753Z,152
2017-03-19T05:49:40.758Z,152
2017-03-19T05:50:40.774Z,156
2017-03-19T05:51:40.792Z,164
2017-03-19T05:52:40.842Z,172
2017-03-19T05:53:40.858Z,180
2017-03-19T05:54:40.874Z,184
2017-03-19T05:55:40.849Z,180
2017-03-19T05:56:40.862Z,176
2017-03-19T05:57:40.874Z,168
2017-03-19T05:58:40.895Z,172
2017-03-19T05:59:40.582Z,176
2017-03-19T06:00:40.954Z,180
2017-03-19T06:01:40.928Z,176
2017-03-19T06:02:40.950Z,188
2017-03-19T06:03:40.949Z,200
2017-03-19T06:04:40.972Z,212
2017-03-19T06:05:40.980Z,216
2017-03-19T06:06:41.162Z,216
2017-03-19T06:07:41.023Z,232
2017-03-19T06:08:41.028Z,236
2017-03-19T06:09:41.046Z,220
2017-03-19T06:10:41.050Z,204
2017-03-19T06:11:41.072Z,204
2017-03-19T06:12:41.081Z,208
2017-03-19T06:13:40.777Z,216
2017-03-19T06:14:40.480Z,216
2017-03-19T06:15:41.152Z,220
2017-03-19T06:16:41.257Z,248
2017-03-19T06:17:41.214Z,264
2017-03-19T06:18:41.294Z,280
2017-03-19T06:19:41.265Z,292
2017-03-19T06:20:41.306Z,304
2017-03-19T06:21:41.009Z,316
2017-03-19T06:22:40.910Z,328
2017-03-19T06:23:41.364Z,336
2017-03-19T06:24:40.934Z,340
2017-03-19T06:25:40.954Z,340
2017-03-19T06:26:40.963Z,344
2017-03-19T06:27:41.297Z,352
2017-03-19T06:28:41.446Z,360
2017-03-19T06:29:41.443Z,368
2017-03-19T06:30:41.012Z,372
2017-03-19T06:31:41.459Z,376
2017-03-19T06:32:41.360Z,384
2017-03-19T06:33:41.384Z,388
2017-03-19T06:34:41.395Z,396
2017-03-19T06:35:41.525Z,416
2017-03-19T06:36:41.410Z,436
2017-03-19T06:37:41.420Z,448
2017-03-19T06:38:41.455Z,460
2017-03-19T06:39:41.486Z,472
2017-03-19T06:40:41.703Z,488
2017-03-19T06:41:41.537Z,508
2017-03-19T06:42:41.728Z,516
2017-03-19T06:43:41.608Z,528
2017-03-19T06:44:41.262Z,540
2017-03-19T06:45:41.567Z,556
2017-03-19T06:46:41.553Z,572
2017-03-19T06:47:41.581Z,604
2017-03-19T06:48:41.580Z,632
2017-03-19T06:49:41.413Z,660
2017-03-19T06:50:41.614Z,672
2017-03-19T06:51:41.749Z,684
2017-03-19T06:52:41.642Z,692
2017-03-19T06:53:41.841Z,700
2017-03-19T06:54:41.749Z,708
2017-03-19T06:55:41.826Z,728
2017-03-19T06:56:41.688Z,744
2017-03-19T06:57:41.781Z,756
2017-03-19T06:58:41.826Z,764
2017-03-19T06:59:41.735Z,768
2017-03-19T07:00:41.745Z,780
2017-03-19T07:01:41.766Z,788
2017-03-19T07:02:41.785Z,808
2017-03-19T07:03:41.802Z,824
2017-03-19T07:04:41.806Z,844
2017-03-19T07:05:41.815Z,852
2017-03-19T07:06:41.836Z,856
2017-03-19T07:07:41.551Z,848
2017-03-19T07:08:41.870Z,852
2017-03-19T07:09:41.569Z,868
2017-03-19T07:10:41.910Z,884
2017-03-19T07:11:41.996Z,860
2017-03-19T07:12:41.920Z,816
2017-03-19T07:13:41.932Z,812
2017-03-19T07:14:41.952Z,812
2017-03-19T07:15:41.950Z,824
2017-03-19T07:16:41.783Z,832
2017-03-19T07:17:41.998Z,820
2017-03-19T07:18:42.014Z,820
2017-03-19T07:19:42.013Z,844
2017-03-19T07:20:42.028Z,880
2017-03-19T07:21:42.052Z,932
2017-03-19T07:22:42.072Z,960
2017-03-19T07:23:41.767Z,968
2017-03-19T07:24:42.103Z,968
2017-03-19T07:25:42.098Z,968
2017-03-19T07:26:42.177Z,980
2017-03-19T07:27:41.820Z,1004
2017-03-19T07:28:42.152Z,1052
2017-03-19T07:29:42.170Z,1108
2017-03-19T07:30:42.263Z,1120
2017-03-19T07:31:42.195Z,1120
2017-03-19T07:32:42.224Z,1104
2017-03-19T07:33:42.239Z,1072
2017-03-19T07:34:42.236Z,1052
2017-03-19T07:35:42.247Z,1044
2017-03-19T07:36:41.949Z,1016
2017-03-19T07:37:42.283Z,988
2017-03-19T07:38:42.302Z,972
2017-03-19T07:39:42.315Z,1004
2017-03-19T07:40:42.326Z,1024
2017-03-19T07:41:42.338Z,1036
2017-03-19T07:42:42.381Z,1044
2017-03-19T07:43:42.371Z,1036
2017-03-19T07:44:42.589Z,1056
2017-03-19T07:45:42.593Z,1136
2017-03-19T07:46:42.608Z,1264
2017-03-19T07:47:42.608Z,1340
2017-03-19T07:48:42.625Z,1336
2017-03-19T07:49:42.545Z,1308
2017-03-19T07:50:42.559Z,1268
2017-03-19T07:51:42.705Z,1244
2017-03-19T07:52:41.991Z,1248
2017-03-19T07:53:42.644Z,1280
2017-03-19T07:54:42.348Z,1332
2017-03-19T07:55:42.230Z,1340
2017-03-19T07:56:42.560Z,1316
2017-03-19T07:57:42.382Z,1324
2017-03-19T07:58:42.619Z,1392
2017-03-19T07:59:42.285Z,1424
2017-03-19T08:00:42.297Z,1424
2017-03-19T08:01:42.316Z,1376
2017-03-19T08:02:42.345Z,1396
2017-03-19T08:03:42.853Z,1392
2017-03-19T08:04:42.684Z,1324
2017-03-19T08:05:42.685Z,1376
2017-03-19T08:06:42.726Z,1436
2017-03-19T08:07:42.719Z,1400
2017-03-19T08:08:42.727Z,1336
2017-03-19T08:09:42.758Z,1444
2017-03-19T08:10:42.768Z,1632
2017-03-19T08:11:42.776Z,1616
2017-03-19T08:12:42.815Z,1456
2017-03-19T08:13:42.812Z,1276
2017-03-19T08:14:42.818Z,1156
2017-03-19T08:15:42.543Z,1140
2017-03-19T08:16:42.949Z,1272
2017-03-19T08:17:42.879Z,1376
2017-03-19T08:18:42.893Z,1296
2017-03-19T08:19:42.897Z,1152
2017-03-19T08:20:42.604Z,1044
2017-03-19T08:21:42.941Z,976
2017-03-19T08:22:42.947Z,944
2017-03-19T08:23:42.969Z,904
2017-03-19T08:24:42.972Z,1060
2017-03-19T08:25:42.993Z,1208
2017-03-19T08:26:42.694Z,1336
2017-03-19T08:27:43.027Z,1428
2017-03-19T08:28:43.048Z,1424
2017-03-19T08:29:43.055Z,1320
2017-03-19T08:30:43.067Z,1224
2017-03-19T08:31:43.083Z,1292
2017-03-19T08:32:43.103Z,1412
2017-03-19T08:33:43.118Z,1452
2017-03-19T08:34:43.126Z,1400
2017-03-19T08:35:43.137Z,1296
2017-03-19T08:36:43.160Z,1268
2017-03-19T08:37:43.193Z,1320
2017-03-19T08:38:43.193Z,1348
2017-03-19T08:39:43.200Z,1380
2017-03-19T08:40:43.216Z,1488
2017-03-19T08:41:43.242Z,1696
2017-03-19T08:42:43.253Z,1784
2017-03-19T08:43:42.960Z,1804
2017-03-19T08:44:43.289Z,1660
2017-03-19T08:45:43.293Z,1584
2017-03-19T08:46:43.313Z,1480
2017-03-19T08:47:43.325Z,1568
2017-03-19T08:48:43.040Z,1692
2017-03-19T08:49:43.350Z,1716
2017-03-19T08:50:43.056Z,1668
2017-03-19T08:51:43.392Z,1624
2017-03-19T08:52:43.100Z,1600
2017-03-19T08:53:43.110Z,1652
2017-03-19T08:54:43.118Z,1684
2017-03-19T08:55:43.137Z,1588
2017-03-19T08:56:43.164Z,1504
2017-03-19T08:57:43.182Z,1508
2017-03-19T08:58:43.510Z,1556
2017-03-19T08:59:43.188Z,1616
2017-03-19T09:00:43.528Z,1636
2017-03-19T09:01:43.544Z,1572
2017-03-19T09:02:43.553Z,1556
2017-03-19T09:03:43.575Z,1636
2017-03-19T09:04:43.276Z,1724
2017-03-19T09:05:43.605Z,1664
2017-03-19T09:06:43.304Z,1500
2017-03-19T09:07:43.634Z,1328
2017-03-19T09:08:43.338Z,1308
2017-03-19T09:09:43.353Z,1248
2017-03-19T09:10:43.796Z,1260
2017-03-19T09:11:43.689Z,1164
2017-03-19T09:12:43.801Z,1072
2017-03-19T09:13:43.715Z,940
2017-03-19T09:14:43.430Z,852
2017-03-19T09:15:43.138Z,848
2017-03-19T09:16:43.465Z,852
2017-03-19T09:17:43.698Z,852
2017-03-19T09:18:43.730Z,856
2017-03-19T09:19:43.198Z,864
2017-03-19T09:20:43.904Z,856
2017-03-19T09:21:43.852Z,872
2017-03-19T09:22:43.869Z,836
2017-03-19T09:23:43.343Z,844
2017-03-19T09:24:43.581Z,848
2017-03-19T09:25:43.287Z,896
2017-03-19T09:26:43.989Z,952
2017-03-19T09:27:43.999Z,996
2017-03-19T09:28:43.997Z,1004
2017-03-19T09:29:43.657Z,948
2017-03-19T09:30:44.151Z,976
2017-03-19T09:31:43.690Z,968
2017-03-19T09:32:44.035Z,940
2017-03-19T09:33:44.035Z,968
2017-03-19T09:34:44.047Z,1044
2017-03-19T09:35:44.069Z,1044
2017-03-19T09:36:44.078Z,1104
2017-03-19T09:37:43.851Z,1160
2017-03-19T09:38:43.835Z,1288
2017-03-19T09:39:44.126Z,1236
2017-03-19T09:40:44.141Z,1164
2017-03-19T09:41:44.160Z,1288
2017-03-19T09:42:44.076Z,1248
2017-03-19T09:43:43.877Z,1064
2017-03-19T09:44:44.199Z,1004
2017-03-19T09:45:44.298Z,1040
2017-03-19T09:46:44.357Z,1088
2017-03-19T09:47:44.340Z,1232
2017-03-19T09:48:43.952Z,1288
2017-03-19T09:49:44.129Z,1256
2017-03-19T09:50:44.485Z,1220
2017-03-19T09:51:44.310Z,1168
2017-03-19T09:52:44.333Z,1176
2017-03-19T09:53:44.346Z,1468
2017-03-19T09:54:44.046Z,1404
2017-03-19T09:55:44.375Z,1224
2017-03-19T09:56:44.078Z,1016
2017-03-19T09:57:44.128Z,1172
2017-03-19T09:58:44.429Z,1320
2017-03-19T09:59:44.440Z,1448
2017-03-19T10:00:44.454Z,1600
2017-03-19T10:01:44.154Z,1416
2017-03-19T10:02:44.491Z,1316
2017-03-19T10:03:44.509Z,1468
2017-03-19T10:04:44.513Z,1368
2017-03-19T10:05:44.543Z,1336
2017-03-19T10:06:44.548Z,1412
2017-03-19T10:07:44.577Z,1392
2017-03-19T10:08:44.585Z,1396
2017-03-19T10:09:43.963Z,1308
2017-03-19T10:10:44.296Z,1280
2017-03-19T10:11:44.628Z,1308
2017-03-19T10:12:44.647Z,1152
2017-03-19T10:13:44.660Z,1116
2017-03-19T10:14:44.673Z,1196
2017-03-19T10:15:44.692Z,1276
2017-03-19T10:16:44.704Z,1232
2017-03-19T10:17:44.189Z,1120
2017-03-19T10:18:44.739Z,1196
2017-03-19T10:19:44.945Z,1240
2017-03-19T10:20:44.809Z,1420
2017-03-19T10:21:44.783Z,1196
2017-03-19T10:22:44.801Z,1120
2017-03-19T10:23:44.818Z,1120
2017-03-19T10:24:44.837Z,1024
2017-03-19T10:25:44.842Z,1060
2017-03-19T10:26:44.538Z,1080
2017-03-19T10:27:44.925Z,988
2017-03-19T10:28:44.895Z,908
2017-03-19T10:29:44.905Z,912
2017-03-19T10:30:44.925Z,916
2017-03-19T10:31:44.939Z,1064
2017-03-19T10:32:44.959Z,1216
2017-03-19T10:33:44.656Z,1336
2017-03-19T10:34:44.671Z,1408
2017-03-19T10:35:45.000Z,1420
2017-03-19T10:36:45.020Z,1440
2017-03-19T10:37:45.258Z,1368
2017-03-19T10:38:44.734Z,1276
2017-03-19T10:39:44.780Z,1260
2017-03-19T10:40:45.274Z,1344
2017-03-19T10:41:44.777Z,1368
2017-03-19T10:42:45.135Z,1420
2017-03-19T10:43:45.137Z,1376
2017-03-19T10:44:44.829Z,1220
2017-03-19T10:45:45.173Z,1088
2017-03-19T10:46:45.166Z,1024
2017-03-19T10:47:44.559Z,980
2017-03-19T10:48:44.894Z,936
2017-03-19T10:49:45.224Z,860
2017-03-19T10:50:44.923Z,760
2017-03-19T10:51:44.941Z,764
2017-03-19T10:52:44.960Z,704
2017-03-19T10:53:44.973Z,748
2017-03-19T10:54:44.984Z,724
2017-03-19T10:55:45.323Z,740
2017-03-19T10:56:45.347Z,680
2017-03-19T10:57:45.352Z,660
2017-03-19T10:58:45.371Z,668
2017-03-19T10:59:45.391Z,704
2017-03-19T11:00:45.398Z,740
2017-03-19T11:01:45.400Z,824
2017-03-19T11:02:45.435Z,872
2017-03-19T11:03:45.458Z,920
2017-03-19T11:04:45.167Z,1000
2017-03-19T11:05:45.478Z,1068
2017-03-19T11:06:45.488Z,1184
2017-03-19T11:07:45.518Z,1256
2017-03-19T11:08:45.520Z,1376
2017-03-19T11:09:45.536Z,1364
2017-03-19T11:10:45.551Z,1468
2017-03-19T11:11:45.574Z,1448
2017-03-19T11:12:45.592Z,1352
2017-03-19T11:13:45.598Z,1340
2017-03-19T11:14:45.620Z,1296
2017-03-19T11:15:45.632Z,1172
2017-03-19T11:16:45.647Z,1120
2017-03-19T11:17:45.667Z,1140
2017-03-19T11:18:45.684Z,1032
2017-03-19T11:19:45.696Z,1020
2017-03-19T11:20:45.729Z,1368
2017-03-19T11:21:45.410Z,1336
2017-03-19T11:22:45.429Z,1180
2017-03-19T11:23:45.450Z,1072
2017-03-19T11:24:45.460Z,1044
2017-03-19T11:25:45.897Z,844
2017-03-19T11:26:45.908Z,728
2017-03-19T11:27:45.929Z,904
2017-03-19T11:28:45.938Z,856
2017-03-19T11:29:45.949Z,1116
2017-03-19T11:30:45.957Z,992
2017-03-19T11:31:45.964Z,1108
2017-03-19T11:32:45.966Z,1080
2017-03-19T11:33:45.609Z,724
2017-03-19T11:34:45.632Z,896
2017-03-19T11:35:45.642Z,828
2017-03-19T11:36:45.650Z,1004
2017-03-19T11:37:45.680Z,1216
2017-03-19T11:38:46.066Z,1324
2017-03-19T11:39:46.073Z,1144
2017-03-19T11:40:45.726Z,1152
2017-03-19T11:41:46.091Z,1324
2017-03-19T11:42:45.871Z,1272
2017-03-19T11:43:46.180Z,1156
2017-03-19T11:44:46.207Z,984
2017-03-19T11:45:46.206Z,824
2017-03-19T11:46:46.224Z,912
2017-03-19T11:47:46.260Z,1096
2017-03-19T11:48:46.016Z,1272
2017-03-19T11:49:45.883Z,1412
2017-03-19T11:50:46.345Z,1544
2017-03-19T11:51:46.034Z,1748
2017-03-19T11:52:46.039Z,1384
2017-03-19T11:53:46.362Z,1344
2017-03-19T11:54:46.371Z,1236
2017-03-19T11:55:46.380Z,1404
2017-03-19T11:56:46.379Z,1528
2017-03-19T11:57:46.523Z,1924
2017-03-19T11:58:45.698Z,1952
2017-03-19T11:59:46.539Z,1884
2017-03-19T12:00:46.546Z,2096
2017-03-19T12:01:46.452Z,2424
2017-03-19T12:02:46.462Z,1620
2017-03-19T12:03:46.507Z,1336
2017-03-19T12:04:46.518Z,1472
2017-03-19T12:05:46.202Z,1124
2017-03-19T12:06:46.523Z,1020
2017-03-19T12:07:46.380Z,944
2017-03-19T12:08:46.572Z,908
2017-03-19T12:09:46.613Z,952
2017-03-19T12:10:46.382Z,948
2017-03-19T12:11:46.336Z,1080
2017-03-19T12:12:46.594Z,1072
2017-03-19T12:13:46.573Z,1220
2017-03-19T12:14:46.577Z,1076
2017-03-19T12:15:46.622Z,956
2017-03-19T12:16:46.610Z,900
2017-03-19T12:17:46.328Z,1096
2017-03-19T12:18:46.652Z,1056
2017-03-19T12:19:46.659Z,1108
2017-03-19T12:20:46.478Z,1068
2017-03-19T12:21:46.688Z,996
2017-03-19T12:22:46.711Z,1248
2017-03-19T12:23:46.732Z,1176
2017-03-19T12:24:46.842Z,1408
2017-03-19T12:25:46.448Z,1576
2017-03-19T12:26:46.473Z,1500
2017-03-19T12:27:46.489Z,1168
2017-03-19T12:28:46.814Z,1048
2017-03-19T12:29:46.932Z,1056
2017-03-19T12:30:46.893Z,1024
2017-03-19T12:31:46.856Z,948
2017-03-19T12:32:46.574Z,940
2017-03-19T12:33:46.909Z,940
2017-03-19T12:34:46.595Z,960
2017-03-19T12:35:46.926Z,1052
2017-03-19T12:36:47.041Z,1020
2017-03-19T12:37:46.760Z,1072
2017-03-19T12:38:46.759Z,1064
2017-03-19T12:39:46.775Z,1152
2017-03-19T12:40:47.077Z,1176
2017-03-19T12:41:47.108Z,1104
2017-03-19T12:42:47.117Z,1108
2017-03-19T12:43:47.059Z,1196
2017-03-19T12:44:47.122Z,1276
2017-03-19T12:45:46.869Z,1388
2017-03-19T12:46:47.108Z,1540
2017-03-19T12:47:46.902Z,1484
2017-03-19T12:48:47.173Z,1380
2017-03-19T12:49:47.156Z,1276
2017-03-19T12:50:47.268Z,1548
2017-03-19T12:51:47.190Z,1624
2017-03-19T12:52:47.207Z,1688
2017-03-19T12:53:47.223Z,1628
2017-03-19T12:54:47.238Z,1520
2017-03-19T12:55:46.701Z,1412
2017-03-19T12:56:47.281Z,1216
2017-03-19T12:57:47.291Z,1088
2017-03-19T12:58:47.305Z,916
2017-03-19T12:59:47.320Z,876
2017-03-19T13:00:47.341Z,968
2017-03-19T13:01:47.356Z,1080
2017-03-19T13:02:47.430Z,1096
2017-03-19T13:03:47.399Z,1020
2017-03-19T13:04:47.410Z,932
2017-03-19T13:05:47.422Z,880
2017-03-19T13:06:47.437Z,996
2017-03-19T13:07:47.456Z,996
2017-03-19T13:08:47.473Z,1204
2017-03-19T13:09:47.178Z,1024
2017-03-19T13:10:47.509Z,888
2017-03-19T13:11:47.520Z,1036
2017-03-19T13:12:47.550Z,948
2017-03-19T13:13:47.556Z,900
2017-03-19T13:14:47.578Z,812
2017-03-19T13:15:47.589Z,848
2017-03-19T13:16:47.605Z,988
2017-03-19T13:17:47.625Z,784
2017-03-19T13:18:47.636Z,1036
2017-03-19T13:19:47.344Z,944
2017-03-19T13:20:47.677Z,848
2017-03-19T13:21:47.690Z,904
2017-03-19T13:22:47.707Z,844
2017-03-19T13:23:47.744Z,888
2017-03-19T13:24:47.741Z,920
2017-03-19T13:25:47.762Z,984
2017-03-19T13:26:47.470Z,812
2017-03-19T13:27:47.812Z,676
2017-03-19T13:28:47.816Z,736
2017-03-19T13:29:47.522Z,580
2017-03-19T13:30:47.832Z,664
2017-03-19T13:31:47.864Z,640
2017-03-19T13:32:47.900Z,496
2017-03-19T13:33:47.891Z,364
2017-03-19T13:34:47.909Z,508
2017-03-19T13:35:47.920Z,404
2017-03-19T13:36:47.936Z,424
2017-03-19T13:37:47.959Z,424
2017-03-19T13:38:47.979Z,440
2017-03-19T13:39:47.990Z,428
2017-03-19T13:40:48.010Z,372
2017-03-19T13:41:48.026Z,516
2017-03-19T13:42:48.058Z,420
2017-03-19T13:43:48.061Z,436
2017-03-19T13:44:48.078Z,596
2017-03-19T13:45:48.098Z,580
2017-03-19T13:46:47.799Z,692
2017-03-19T13:47:48.128Z,756
2017-03-19T13:48:48.181Z,800
2017-03-19T13:49:48.202Z,688
2017-03-19T13:50:48.178Z,708
2017-03-19T13:51:48.194Z,736
2017-03-19T13:52:48.228Z,1048
2017-03-19T13:53:48.259Z,956
2017-03-19T13:54:48.249Z,840
2017-03-19T13:55:48.267Z,1256
2017-03-19T13:56:48.294Z,1264
2017-03-19T13:57:47.992Z,1108
2017-03-19T13:58:48.006Z,1132